createdAt,value
2022-09-27T00:01:06.846Z,72.25
2022-09-27T00:03:35.586Z,49.30
2022-09-27T00:06:14.402Z,45.97
2022-09-27T00:08:41.273Z,33.17
2022-09-27T00:11:13.782Z,24.20
2022-09-27T00:13:40.447Z,13.00
2022-09-27T00:16:09.331Z,8.80
2022-09-27T00:18:35.835Z,3.90
2022-09-27T00:21:11.981Z,4.53
2022-09-27T00:23:39.656Z,2.47
2022-09-27T00:26:10.131Z,4.88
2022-09-27T00:28:36.621Z,3.22
2022-09-27T00:31:03.857Z,5.15
2022-09-27T00:33:30.579Z,3.42
2022-09-27T00:36:04.655Z,3.08
2022-09-27T00:38:31.137Z,4.28
2022-09-27T00:40:57.644Z,2.35
2022-09-27T00:43:24.263Z,2.47
2022-09-27T00:45:59.073Z,2.08
2022-09-27T00:48:31.268Z,5.85
2022-09-27T00:51:02.828Z,2.90
2022-09-27T00:53:39.082Z,3.50
2022-09-27T00:56:11.370Z,5.05
2022-09-27T00:58:43.136Z,3.83
2022-09-27T01:01:10.632Z,2.05
2022-09-27T01:03:46.482Z,4.03
2022-09-27T01:06:14.703Z,4.60
2022-09-27T01:08:41.241Z,3.60
2022-09-27T01:11:17.379Z,4.05
2022-09-27T01:14:09.615Z,2.95
2022-09-27T01:17:07.683Z,6.22
2022-09-27T01:19:55.789Z,4.75
2022-09-27T01:22:34.711Z,2.67
2022-09-27T01:25:39.264Z,3.55
2022-09-27T01:28:12.803Z,3.80
2022-09-27T01:31:04.538Z,3.70
2022-09-27T01:33:47.709Z,4.00
2022-09-27T01:36:14.165Z,5.22
2022-09-27T01:38:56.912Z,3.58
2022-09-27T01:41:26.416Z,4.47
2022-09-27T01:44:08.322Z,5.47
2022-09-27T01:47:01.697Z,5.85
2022-09-27T01:49:38.020Z,3.45
2022-09-27T01:52:07.979Z,9.93
2022-09-27T01:54:40.881Z,9.10
2022-09-27T01:57:11.198Z,4.60
2022-09-27T01:59:47.236Z,5.85
2022-09-27T02:02:17.157Z,6.15
2022-09-27T02:04:48.010Z,6.07
2022-09-27T02:07:23.616Z,4.18
2022-09-27T02:09:59.687Z,6.40
2022-09-27T02:12:33.155Z,4.72
2022-09-27T02:15:05.230Z,7.50
2022-09-27T02:17:34.772Z,5.45
2022-09-27T02:20:08.028Z,5.05
2022-09-27T02:23:03.857Z,5.53
2022-09-27T02:26:02.934Z,5.40
2022-09-27T02:28:37.418Z,5.05
2022-09-27T02:31:04.002Z,3.92
2022-09-27T02:33:53.605Z,4.68
2022-09-27T02:36:21.353Z,7.82
2022-09-27T02:38:48.158Z,3.03
2022-09-27T02:41:22.525Z,3.88
2022-09-27T02:43:55.547Z,2.42
2022-09-27T02:46:34.294Z,3.17
2022-09-27T02:49:28.743Z,3.50
2022-09-27T02:55:06.376Z,4.32
2022-09-27T02:58:25.051Z,3.40
2022-09-27T03:01:05.858Z,3.78
2022-09-27T03:03:58.736Z,2.42
2022-09-27T03:06:25.903Z,6.53
2022-09-27T03:08:56.826Z,2.60
2022-09-27T03:11:23.338Z,2.45
2022-09-27T03:14:07.746Z,3.30
2022-09-27T03:16:34.734Z,4.90
2022-09-27T03:19:01.207Z,2.72
2022-09-27T03:21:27.759Z,4.78
2022-09-27T03:23:54.206Z,4.18
2022-09-27T03:26:21.145Z,3.88
2022-09-27T03:28:47.610Z,7.60
2022-09-27T03:31:14.769Z,4.22
2022-09-27T03:33:41.319Z,4.57
2022-09-27T03:36:07.887Z,4.78
2022-09-27T03:38:34.361Z,5.70
2022-09-27T03:41:03.819Z,3.47
2022-09-27T03:43:32.813Z,6.40
2022-09-27T03:45:59.356Z,4.70
2022-09-27T03:48:31.063Z,3.75
2022-09-27T03:50:57.583Z,3.88
2022-09-27T03:53:24.660Z,3.45
2022-09-27T03:55:51.142Z,4.07
2022-09-27T03:58:17.604Z,3.55
2022-09-27T04:00:46.305Z,4.22
2022-09-27T04:03:13.506Z,3.83
2022-09-27T04:05:40.131Z,3.90
2022-09-27T04:08:07.716Z,4.43
2022-09-27T04:10:34.502Z,4.00
2022-09-27T04:13:00.939Z,3.67
2022-09-27T04:15:27.407Z,5.88
2022-09-27T04:17:53.861Z,5.57
2022-09-27T04:20:22.772Z,3.90
2022-09-27T04:22:54.538Z,4.40
2022-09-27T04:25:21.043Z,5.85
2022-09-27T04:27:48.307Z,4.90
2022-09-27T04:30:15.561Z,8.82
2022-09-27T04:32:45.060Z,6.82
2022-09-27T04:35:31.406Z,3.33
2022-09-27T04:37:58.727Z,3.65
2022-09-27T04:40:25.735Z,5.78
2022-09-27T04:42:52.343Z,7.78
2022-09-27T04:45:19.981Z,3.50
2022-09-27T04:47:48.625Z,4.28
2022-09-27T04:50:17.419Z,3.85
2022-09-27T04:52:49.566Z,2.25
2022-09-27T04:55:16.120Z,2.58
2022-09-27T04:57:42.580Z,2.70
2022-09-27T05:00:09.930Z,2.45
2022-09-27T05:02:36.486Z,4.85
2022-09-27T05:05:03.051Z,5.20
2022-09-27T05:07:29.870Z,5.13
2022-09-27T05:09:56.880Z,4.05
2022-09-27T05:12:25.278Z,3.75
2022-09-27T05:14:51.698Z,3.58
2022-09-27T05:17:19.012Z,3.47
2022-09-27T05:19:45.552Z,2.60
2022-09-27T05:22:12.164Z,4.00
2022-09-27T05:24:39.213Z,4.05
2022-09-27T05:27:08.429Z,3.72
2022-09-27T05:29:37.665Z,5.70
2022-09-27T05:32:04.610Z,6.07
2022-09-27T05:34:34.186Z,6.35
2022-09-27T05:37:00.692Z,3.10
2022-09-27T05:39:27.161Z,3.10
2022-09-27T05:41:54.705Z,5.50
2022-09-27T05:44:21.262Z,3.78
2022-09-27T05:46:47.715Z,3.17
2022-09-27T05:49:14.183Z,1.50
2022-09-27T05:51:42.918Z,6.03
2022-09-27T05:54:09.506Z,5.93
2022-09-27T05:56:36.036Z,3.33
2022-09-27T05:59:02.501Z,3.92
2022-09-27T06:01:29.240Z,3.13
2022-09-27T06:03:55.758Z,2.65
2022-09-27T06:06:25.234Z,3.17
2022-09-27T06:08:51.721Z,1.73
2022-09-27T06:11:18.199Z,2.53
2022-09-27T06:13:44.689Z,2.85
2022-09-27T06:16:11.931Z,2.22
2022-09-27T06:18:38.503Z,3.90
2022-09-27T06:21:09.800Z,1.73
2022-09-27T06:23:36.281Z,2.60
2022-09-27T06:26:04.969Z,2.15
2022-09-27T06:28:34.999Z,2.92
2022-09-27T06:31:01.733Z,2.20
2022-09-27T06:33:30.752Z,2.42
2022-09-27T06:35:57.251Z,2.67
2022-09-27T06:38:25.906Z,6.55
2022-09-27T06:40:52.844Z,8.52
2022-09-27T06:43:21.316Z,3.90
2022-09-27T06:45:48.333Z,2.22
2022-09-27T06:48:17.059Z,2.67
2022-09-27T06:50:45.525Z,1.58
2022-09-27T06:53:14.107Z,3.78
2022-09-27T06:55:40.978Z,6.20
2022-09-27T06:58:26.561Z,7.07
2022-09-27T07:00:55.451Z,2.95
2022-09-27T07:03:35.336Z,3.53
2022-09-27T07:06:06.309Z,2.92
2022-09-27T07:08:34.067Z,3.38
2022-09-27T07:11:07.326Z,2.50
2022-09-27T07:13:37.085Z,1.98
2022-09-27T07:16:04.160Z,5.97
2022-09-27T07:18:30.935Z,4.93
2022-09-27T07:21:00.790Z,3.72
2022-09-27T07:23:28.012Z,3.97
2022-09-27T07:25:54.823Z,6.00
2022-09-27T07:28:22.243Z,8.50
2022-09-27T07:30:49.946Z,6.20
2022-09-27T07:33:16.512Z,6.80
2022-09-27T07:35:43.754Z,8.27
2022-09-27T07:38:13.311Z,5.72
2022-09-27T07:40:43.848Z,5.55
2022-09-27T07:43:10.451Z,4.32
2022-09-27T07:45:37.570Z,5.95
2022-09-27T07:48:06.226Z,4.63
2022-09-27T07:50:33.168Z,4.93
2022-09-27T07:52:59.678Z,3.25
2022-09-27T07:55:26.226Z,4.22
2022-09-27T07:57:53.628Z,3.47
2022-09-27T08:00:20.270Z,5.50
2022-09-27T08:02:46.896Z,10.68
2022-09-27T08:05:15.955Z,4.32
2022-09-27T08:07:42.510Z,2.15
2022-09-27T08:10:09.600Z,4.00
2022-09-27T08:12:38.902Z,1.77
2022-09-27T08:15:05.836Z,3.70
2022-09-27T08:17:35.104Z,1.85
2022-09-27T08:20:06.234Z,1.70
2022-09-27T08:22:40.304Z,4.03
2022-09-27T08:25:07.114Z,1.73
2022-09-27T08:27:33.573Z,1.70
2022-09-27T08:30:00.496Z,4.90
2022-09-27T08:32:30.714Z,2.30
2022-09-27T08:34:57.274Z,4.03
2022-09-27T08:37:23.755Z,2.97
2022-09-27T08:39:52.605Z,1.90
2022-09-27T08:42:35.183Z,3.28
2022-09-27T08:45:04.548Z,2.85
2022-09-27T08:47:45.818Z,1.60
2022-09-27T08:50:24.941Z,1.73
2022-09-27T08:53:17.415Z,2.60
2022-09-27T08:55:48.051Z,3.05
2022-09-27T08:58:28.409Z,2.75
2022-09-27T09:00:59.309Z,2.40
2022-09-27T09:03:36.786Z,1.35
2022-09-27T09:06:03.415Z,2.45
2022-09-27T09:08:38.690Z,2.92
2022-09-27T09:11:33.195Z,2.63
2022-09-27T09:14:18.493Z,4.60
2022-09-27T09:17:00.732Z,1.92
2022-09-27T09:20:00.482Z,3.00
2022-09-27T09:22:45.643Z,4.25
2022-09-27T09:25:31.112Z,2.88
2022-09-27T09:28:09.833Z,4.05
2022-09-27T09:30:53.290Z,2.05
2022-09-27T09:33:25.773Z,4.38
2022-09-27T09:36:09.197Z,1.35
2022-09-27T09:38:50.721Z,2.92
2022-09-27T09:41:41.633Z,2.78
2022-09-27T09:44:15.715Z,2.17
2022-09-27T09:46:46.513Z,2.47
2022-09-27T09:49:43.125Z,4.38
2022-09-27T09:52:19.704Z,1.90
2022-09-27T09:54:52.077Z,0.85
2022-09-27T09:57:36.422Z,3.05
2022-09-27T10:00:13.967Z,1.98
2022-09-27T10:02:44.886Z,1.90
2022-09-27T10:05:20.305Z,1.75
2022-09-27T10:07:50.700Z,0.85
2022-09-27T10:10:19.616Z,2.17
2022-09-27T10:12:47.495Z,6.75
2022-09-27T10:15:18.429Z,1.85
2022-09-27T10:17:58.012Z,2.40
2022-09-27T10:20:45.577Z,1.15
2022-09-27T10:23:16.248Z,1.10
2022-09-27T10:25:50.485Z,1.30
2022-09-27T10:28:34.012Z,1.10
2022-09-27T10:31:06.103Z,2.05
2022-09-27T10:33:33.129Z,2.35
2022-09-27T10:36:03.442Z,1.25
2022-09-27T10:38:37.258Z,0.70
2022-09-27T10:44:15.424Z,1.27
2022-09-27T10:46:44.463Z,1.05
2022-09-27T10:49:22.452Z,1.50
2022-09-27T10:52:05.321Z,1.52
2022-09-27T10:54:37.436Z,1.73
2022-09-27T10:57:15.583Z,1.10
2022-09-27T10:59:56.659Z,2.80
2022-09-27T11:02:32.439Z,0.90
2022-09-27T11:05:31.215Z,0.93
2022-09-27T11:08:03.396Z,0.60
2022-09-27T11:10:36.947Z,3.15
2022-09-27T11:13:20.546Z,1.00
2022-09-27T11:15:57.519Z,1.10
2022-09-27T11:18:36.171Z,0.93
2022-09-27T11:21:31.768Z,1.25
2022-09-27T11:24:25.748Z,2.40
2022-09-27T11:27:22.321Z,1.10
2022-09-27T11:30:00.852Z,4.00
2022-09-27T11:32:42.591Z,4.80
2022-09-27T11:35:19.450Z,1.08
2022-09-27T11:38:02.903Z,2.55
2022-09-27T11:40:44.756Z,1.05
2022-09-27T11:43:36.809Z,1.52
2022-09-27T11:46:33.213Z,3.50
2022-09-27T11:49:57.220Z,1.17
2022-09-27T11:52:26.404Z,6.18
2022-09-27T11:55:29.996Z,1.00
2022-09-27T11:58:08.598Z,4.45
2022-09-27T12:00:50.668Z,7.63
2022-09-27T12:03:55.789Z,1.55
2022-09-27T12:06:38.306Z,4.13
2022-09-27T12:09:34.425Z,3.42
2022-09-27T12:12:19.237Z,8.57
2022-09-27T12:14:50.440Z,0.60
2022-09-27T12:17:23.874Z,0.75
2022-09-27T12:19:55.103Z,2.28
2022-09-27T12:22:56.974Z,1.20
2022-09-27T12:25:21.002Z,0.65
2022-09-27T12:27:55.770Z,1.27
2022-09-27T12:30:22.365Z,0.65
2022-09-27T12:33:13.083Z,1.13
2022-09-27T12:36:02.832Z,5.40
2022-09-27T12:38:48.407Z,0.85
2022-09-27T12:41:19.643Z,1.85
2022-09-27T12:43:49.854Z,0.80
2022-09-27T12:46:41.658Z,2.72
2022-09-27T12:49:17.257Z,1.52
2022-09-27T12:51:51.890Z,1.30
2022-09-27T12:54:43.718Z,3.13
2022-09-27T12:57:53.621Z,2.25
2022-09-27T13:00:25.244Z,3.55
2022-09-27T13:03:25.013Z,1.52
2022-09-27T13:06:13.365Z,1.17
2022-09-27T13:08:53.897Z,1.77
2022-09-27T13:11:28.865Z,1.50
2022-09-27T13:14:00.569Z,1.55
2022-09-27T13:16:27.945Z,1.88
2022-09-27T13:19:02.796Z,2.75
2022-09-27T13:21:54.851Z,2.33
2022-09-27T13:24:40.593Z,1.38
2022-09-27T13:27:40.486Z,1.00
2022-09-27T13:30:09.896Z,1.67
2022-09-27T13:32:37.027Z,2.72
2022-09-27T13:35:24.247Z,1.80
2022-09-27T13:38:00.463Z,3.53
2022-09-27T13:40:37.404Z,2.60
2022-09-27T13:43:13.160Z,1.35
2022-09-27T13:45:43.129Z,3.00
2022-09-27T13:48:20.045Z,2.10
2022-09-27T13:51:04.756Z,1.15
2022-09-27T13:53:38.024Z,4.13
2022-09-27T13:56:05.884Z,8.52
2022-09-27T13:58:50.977Z,4.07
2022-09-27T14:01:28.517Z,2.70
2022-09-27T14:04:00.809Z,1.10
2022-09-27T14:06:33.191Z,0.95
2022-09-27T14:09:05.468Z,1.15
2022-09-27T14:11:40.345Z,1.88
2022-09-27T14:14:17.173Z,2.78
2022-09-27T14:16:48.040Z,0.52
2022-09-27T14:19:25.949Z,1.80
2022-09-27T14:21:53.164Z,1.83
2022-09-27T14:24:44.482Z,0.60
2022-09-27T14:27:29.427Z,1.30
2022-09-27T14:30:01.713Z,1.88
2022-09-27T14:32:32.298Z,2.45
2022-09-27T14:35:27.466Z,3.45
2022-09-27T14:37:54.508Z,0.70
2022-09-27T14:40:22.418Z,1.05
2022-09-27T14:42:53.842Z,1.15
2022-09-27T14:45:39.083Z,1.08
2022-09-27T14:48:29.962Z,0.77
2022-09-27T14:51:06.234Z,0.60
2022-09-27T14:53:36.652Z,10.57
2022-09-27T14:56:09.100Z,0.93
2022-09-27T14:58:47.243Z,3.20
2022-09-27T15:01:20.027Z,3.95
2022-09-27T15:03:48.901Z,1.15
2022-09-27T15:06:17.234Z,4.32
2022-09-27T15:08:47.562Z,1.30
2022-09-27T15:11:14.061Z,4.00
2022-09-27T15:13:45.358Z,5.78
2022-09-27T15:16:20.049Z,4.55
2022-09-27T15:18:59.696Z,4.20
2022-09-27T15:21:31.570Z,4.38
2022-09-27T15:23:59.249Z,4.28
2022-09-27T15:26:36.917Z,3.17
2022-09-27T15:29:04.611Z,2.05
2022-09-27T15:31:34.688Z,2.92
2022-09-27T15:34:02.680Z,3.17
2022-09-27T15:36:47.493Z,4.25
2022-09-27T15:39:18.704Z,1.92
2022-09-27T15:42:04.972Z,1.23
2022-09-27T15:44:45.236Z,1.90
2022-09-27T15:47:38.588Z,2.75
2022-09-27T15:50:17.307Z,2.75
2022-09-27T15:52:55.665Z,3.67
2022-09-27T15:55:26.970Z,2.85
2022-09-27T15:57:59.634Z,4.72
2022-09-27T16:00:27.105Z,4.80
2022-09-27T16:02:54.027Z,2.97
2022-09-27T16:05:20.975Z,6.70
2022-09-27T16:07:47.381Z,4.85
2022-09-27T16:10:20.142Z,3.53
2022-09-27T16:12:46.552Z,1.50
2022-09-27T16:15:14.670Z,1.52
2022-09-27T16:17:42.695Z,1.92
2022-09-27T16:20:24.946Z,2.10
2022-09-27T16:22:52.549Z,2.45
2022-09-27T16:25:19.710Z,2.35
2022-09-27T16:27:46.719Z,4.60
2022-09-27T16:30:14.041Z,3.25
2022-09-27T16:32:47.836Z,2.38
2022-09-27T16:37:44.151Z,6.93
2022-09-27T16:40:11.575Z,5.20
2022-09-27T16:42:38.606Z,8.50
2022-09-27T16:45:10.588Z,8.55
2022-09-27T16:47:39.259Z,5.07
2022-09-27T16:50:24.676Z,5.75
2022-09-27T16:52:52.207Z,5.45
2022-09-27T16:55:20.885Z,3.55
2022-09-27T16:57:48.251Z,5.22
2022-09-27T17:00:15.295Z,1.20
2022-09-27T17:02:47.072Z,1.88
2022-09-27T17:05:14.709Z,4.20
2022-09-27T17:07:41.221Z,3.63
2022-09-27T17:10:08.079Z,3.28
2022-09-27T17:12:34.755Z,2.35
2022-09-27T17:15:01.306Z,4.72
2022-09-27T17:17:30.134Z,1.98
2022-09-27T17:19:56.673Z,1.92
2022-09-27T17:22:23.104Z,2.97
2022-09-27T17:24:49.681Z,3.60
2022-09-27T17:27:16.164Z,4.35
2022-09-27T17:29:42.654Z,2.67
2022-09-27T17:32:12.146Z,3.78
2022-09-27T17:34:43.510Z,3.10
2022-09-27T17:37:14.835Z,3.53
2022-09-27T17:39:41.693Z,3.33
2022-09-27T17:42:08.447Z,2.92
2022-09-27T17:44:37.523Z,3.05
2022-09-27T17:47:23.019Z,2.83
2022-09-27T17:50:07.812Z,5.97
2022-09-27T17:52:37.181Z,7.22
2022-09-27T17:55:04.005Z,7.75
2022-09-27T17:57:32.858Z,8.85
2022-09-27T17:59:59.294Z,9.82
2022-09-27T18:02:26.709Z,8.38
2022-09-27T18:04:55.703Z,6.55
2022-09-27T18:07:22.224Z,5.50
2022-09-27T18:09:50.107Z,8.05
2022-09-27T18:12:16.808Z,5.07
2022-09-27T18:14:43.267Z,8.35
2022-09-27T18:17:12.778Z,8.43
2022-09-27T18:19:39.938Z,6.15
2022-09-27T18:22:07.208Z,3.33
2022-09-27T18:24:33.688Z,5.88
2022-09-27T18:27:00.791Z,6.32
2022-09-27T18:29:28.747Z,4.90
2022-09-27T18:31:57.714Z,5.38
2022-09-27T18:34:25.221Z,5.88
2022-09-27T18:36:51.944Z,3.55
2022-09-27T18:39:19.544Z,3.78
2022-09-27T18:41:50.100Z,2.33
2022-09-27T18:44:18.091Z,3.75
2022-09-27T18:46:45.457Z,1.83
2022-09-27T18:49:15.290Z,2.50
2022-09-27T18:51:47.053Z,1.77
2022-09-27T18:54:21.638Z,2.65
2022-09-27T18:56:50.352Z,1.98
2022-09-27T18:59:17.597Z,2.95
2022-09-27T19:01:45.996Z,4.32
2022-09-27T19:04:23.900Z,5.22
2022-09-27T19:06:51.726Z,5.03
2022-09-27T19:09:20.558Z,5.78
2022-09-27T19:11:47.328Z,5.80
2022-09-27T19:14:19.556Z,4.43
2022-09-27T19:16:47.449Z,2.13
2022-09-27T19:19:18.361Z,5.05
2022-09-27T19:21:47.268Z,4.13
2022-09-27T19:24:14.326Z,1.83
2022-09-27T19:26:41.359Z,3.75
2022-09-27T19:29:07.848Z,1.88
2022-09-27T19:31:35.926Z,1.88
2022-09-27T19:34:03.012Z,3.67
2022-09-27T19:36:30.047Z,2.28
2022-09-27T19:39:00.246Z,4.07
2022-09-27T19:41:27.058Z,4.03
2022-09-27T19:43:55.171Z,2.25
2022-09-27T19:46:23.509Z,2.20
2022-09-27T19:48:51.011Z,2.63
2022-09-27T19:51:26.300Z,4.10
2022-09-27T19:53:53.582Z,3.17
2022-09-27T19:56:20.985Z,3.13
2022-09-27T19:58:47.608Z,2.03
2022-09-27T20:01:20.286Z,1.50
2022-09-27T20:03:48.343Z,3.00
2022-09-27T20:06:17.081Z,2.33
2022-09-27T20:08:44.145Z,2.15
2022-09-27T20:11:21.911Z,2.35
2022-09-27T20:13:49.139Z,1.50
2022-09-27T20:16:23.638Z,1.85
2022-09-27T20:18:54.512Z,1.63
2022-09-27T20:21:24.819Z,1.27
2022-09-27T20:23:53.404Z,1.50
2022-09-27T20:26:22.575Z,3.00
2022-09-27T20:28:51.914Z,2.72
2022-09-27T20:31:23.304Z,1.55
2022-09-27T20:33:50.885Z,1.38
2022-09-27T20:36:22.876Z,3.78
2022-09-27T20:38:54.511Z,5.72
2022-09-27T20:41:24.705Z,4.72
2022-09-27T20:43:56.307Z,1.60
2022-09-27T20:46:24.258Z,1.08
2022-09-27T20:48:53.596Z,1.67
2022-09-27T20:51:21.038Z,1.40
2022-09-27T20:53:51.483Z,1.35
2022-09-27T20:56:23.780Z,2.03
2022-09-27T20:58:55.510Z,4.53
2022-09-27T21:01:23.626Z,5.15
2022-09-27T21:03:54.588Z,6.30
2022-09-27T21:06:22.939Z,3.30
2022-09-27T21:08:52.747Z,8.90
2022-09-27T21:11:20.075Z,7.07
2022-09-27T21:13:47.919Z,1.27
2022-09-27T21:16:17.040Z,2.85
2022-09-27T21:18:44.150Z,0.45
2022-09-27T21:21:13.305Z,2.88
2022-09-27T21:23:44.921Z,5.95
2022-09-27T21:26:12.965Z,1.35
2022-09-27T21:28:42.210Z,2.95
2022-09-27T21:31:14.924Z,1.95
2022-09-27T21:33:48.379Z,2.40
2022-09-27T21:36:14.875Z,1.58
2022-09-27T21:38:41.514Z,0.77
2022-09-27T21:41:14.530Z,0.45
2022-09-27T21:43:41.944Z,0.68
2022-09-27T21:46:14.575Z,0.47
2022-09-27T21:48:42.868Z,0.38
2022-09-27T21:51:21.218Z,0.40
2022-09-27T21:53:53.632Z,6.72
2022-09-27T21:56:21.776Z,0.30
2022-09-27T21:58:49.021Z,0.47
2022-09-27T22:01:18.225Z,0.80
2022-09-27T22:03:46.538Z,0.40
2022-09-27T22:06:18.588Z,1.10
2022-09-27T22:08:46.164Z,1.90
2022-09-27T22:11:14.519Z,1.80
2022-09-27T22:13:40.982Z,1.15
2022-09-27T22:16:13.124Z,3.65
2022-09-27T22:18:42.796Z,0.77
2022-09-27T22:21:14.186Z,0.82
2022-09-27T22:23:41.305Z,0.63
2022-09-27T22:26:35.148Z,0.52
2022-09-27T22:29:03.894Z,1.00
2022-09-27T22:31:31.274Z,0.80
2022-09-27T22:34:03.488Z,1.23
2022-09-27T22:36:30.898Z,0.73
2022-09-27T22:38:57.800Z,1.15
2022-09-27T22:41:25.185Z,0.32
2022-09-27T22:43:53.500Z,0.40
2022-09-27T22:46:21.336Z,2.70
2022-09-27T22:48:49.577Z,1.23
2022-09-27T22:51:16.800Z,1.95
2022-09-27T22:53:45.606Z,0.35
2022-09-27T22:56:17.606Z,0.30
2022-09-27T22:58:47.666Z,0.47
2022-09-27T23:01:23.109Z,3.45
2022-09-27T23:03:55.474Z,1.20
2022-09-27T23:06:22.756Z,0.38
2022-09-27T23:08:50.172Z,1.42
2022-09-27T23:11:19.264Z,1.33
2022-09-27T23:13:48.021Z,0.55
2022-09-27T23:16:17.027Z,0.65
2022-09-27T23:18:44.418Z,0.47
2022-09-27T23:21:12.618Z,0.45
2022-09-27T23:23:49.729Z,3.55
2022-09-27T23:26:17.376Z,1.50
2022-09-27T23:28:44.242Z,1.20
2022-09-27T23:31:16.860Z,1.60
2022-09-27T23:33:47.411Z,0.50
2022-09-27T23:36:16.346Z,0.40
2022-09-27T23:38:45.410Z,0.55
2022-09-27T23:41:13.327Z,0.40
2022-09-27T23:43:39.791Z,0.30
2022-09-27T23:46:08.003Z,0.40
2022-09-27T23:48:34.885Z,0.30
2022-09-27T23:51:02.751Z,0.30
2022-09-27T23:53:29.195Z,1.60
2022-09-27T23:56:02.439Z,0.75
2022-09-27T23:58:32.445Z,0.90
